Valente Venus — 3EOC7 — position and weather

sailwx.info

Track history (hours):
 
Tides and Currents Weather Stations Pressure Air Temp Water Temp Dewpoint Dewpoint Depression Visibility Wind Speed Wind Dir Waves Ship Positions

Valente Venus

Last reported at 2018-Jun-15 15:50 UTC. Time now 2018-Jun-20 09:00 UTC.
Position N 31°02' E 122°20'.

Length 161 m; draft 6 m.

Type: Cargo ship. MMSI: 354905000.

Date/timePositionNaut miles runAvg speedWind from/ knotsBaromVisibWave heightAir tempDewpointWater temp
2018-Jun-15 15:50N 31°02' E 122°20'410.7
2018-Jun-15 15:27N 31°02' E 122°15'3 6.7
2018-Jun-15 15:00N 31°03' E 122°12'4 7.2
2018-Jun-15 14:30N 31°03' E 122°08'5 8.8
2018-Jun-15 13:59N 31°05' E 122°03'4 7.7
2018-Jun-15 13:30N 31°06' E 121°58'5 9.4
2018-Jun-15 13:00N 31°08' E 121°54'713.8
2018-Jun-15 12:30N 31°13' E 121°48'7910.6
2018-Jun-15 05:04N 32°01' E 120°34'112.3
2018-Jun-15 05:00N 32°01' E 120°33'813.0
2018-Jun-15 04:22N 32°00' E 120°23'  
Track history (hours):
 
Tides and Currents Weather Stations Pressure Air Temp Water Temp Dewpoint Dewpoint Depression Visibility Wind Speed Wind Dir Waves Ship Positions

Valente Venus

Last reported at 2018-Jun-15 15:50 UTC. Time now 2018-Jun-20 09:00 UTC.
Position N 31°02' E 122°20'.

Length 161 m; draft 6 m.

Type: Cargo ship. MMSI: 354905000.

Date/timePositionNaut miles runAvg speedWind from/ knotsBaromVisibWave heightAir tempDewpointWater temp
2018-Jun-15 15:50N 31°02' E 122°20'410.7
2018-Jun-15 15:27N 31°02' E 122°15'3 6.7
2018-Jun-15 15:00N 31°03' E 122°12'4 7.2
2018-Jun-15 14:30N 31°03' E 122°08'5 8.8
2018-Jun-15 13:59N 31°05' E 122°03'4 7.7
2018-Jun-15 13:30N 31°06' E 121°58'5 9.4
2018-Jun-15 13:00N 31°08' E 121°54'713.8
2018-Jun-15 12:30N 31°13' E 121°48'7910.6
2018-Jun-15 05:04N 32°01' E 120°34'112.3
2018-Jun-15 05:00N 32°01' E 120°33'813.0
2018-Jun-15 04:22N 32°00' E 120°23'  

Dump ship's entire track history